LiveATC.Net - Listen to live air traffic control over the Internet!


ICAO: KFFC  IATA: FFC   Airport: Atlanta Regional Airport-Falcon Field
City: Atlanta   State/Province: Georgia
Country: United States   Continent: North America
KFFC METAR Weather: KFFC 251853Z AUTO 13011KT 10SM SCT036 SCT046 BKN055 28/18 A3009 RMK AO2 LTG DSNT W SLP184 T02780183
KFFC Flight Activity (FlightAware)
KFFC Airport Info   (iFlightPlanner)
KFFC VFR Sectional Chart   (iFlightPlanner) 
KFFC IFR Low Altitude Chart   (iFlightPlanner) 
KFFC IFR High Altitude Chart   (iFlightPlanner) 

KFFC CTAF
Feed Status: UP   Listeners: 0
Listen in your browser - HTML5 player (in browser, HTML5)
Click here to listen with your own player (launches your MP3 player)
Archive Access: KFFC CTAF
FacilityFrequency
Falcon CTAF123.050

NOTICE

Unauthorized use prohibited. See LiveATC.net Terms of Service


Airport/ARTCC Code
Frequency Search
(e.g., 124.400, 128.75)
Site-wide search
 


Browse Feeds
Top 50 Feeds
HF Oceanic Feeds
Coverage Map
Bad Weather Areas

LiveATC FAQ
Offer LiveATC feed
Contact LiveATC.net
Press Inquiries

LiveATC on iPhone
LiveATC on Android

LiveATC Mobile
(Mobile browser)

ATC Audio Archives
Interesting Recordings

LiveATC Forums


Home Page
About LiveATC.net


Terms of Use
Privacy Policy

AIRMETs/SIGMETs

FAA Airport Status
NAS Status
Arrival Demand


Server Software By:
Icecast.org
Liquidsoap